createdAt,value
2019-02-14T00:00:08.620Z,18.61
2019-02-14T00:01:09.448Z,18.61
2019-02-14T00:02:08.724Z,18.61
2019-02-14T00:03:08.605Z,18.59
2019-02-14T00:04:08.982Z,18.59
2019-02-14T00:05:16.069Z,18.58
2019-02-14T00:06:09.060Z,18.58
2019-02-14T00:07:08.846Z,18.57
2019-02-14T00:08:08.910Z,18.57
2019-02-14T00:09:08.797Z,18.57
2019-02-14T00:10:08.775Z,18.57
2019-02-14T00:11:08.758Z,18.56
2019-02-14T00:12:09.213Z,18.56
2019-02-14T00:13:08.559Z,18.55
2019-02-14T00:14:08.598Z,18.55
2019-02-14T00:15:10.556Z,18.54
2019-02-14T00:16:08.946Z,18.54
2019-02-14T00:17:08.896Z,18.54
2019-02-14T00:18:10.223Z,18.52
2019-02-14T00:19:08.964Z,18.53
2019-02-14T00:20:08.959Z,18.53
2019-02-14T00:21:09.757Z,18.52
2019-02-14T00:22:09.066Z,18.52
2019-02-14T00:23:09.808Z,18.52
2019-02-14T00:24:08.988Z,18.51
2019-02-14T00:25:08.790Z,18.51
2019-02-14T00:26:09.299Z,18.51
2019-02-14T00:27:09.320Z,18.5
2019-02-14T00:28:08.604Z,18.49
2019-02-14T00:29:09.237Z,18.47
2019-02-14T00:30:08.745Z,18.49
2019-02-14T00:31:09.042Z,18.48
2019-02-14T00:32:10.648Z,18.48
2019-02-14T00:33:08.667Z,18.47
2019-02-14T00:34:08.870Z,18.47
2019-02-14T00:35:08.886Z,18.45
2019-02-14T00:36:09.173Z,18.45
2019-02-14T00:37:09.606Z,18.45
2019-02-14T00:38:08.878Z,18.46
2019-02-14T00:39:09.966Z,18.44
2019-02-14T00:40:08.723Z,18.44
2019-02-14T00:41:08.947Z,18.44
2019-02-14T00:42:09.732Z,18.43
2019-02-14T00:43:09.249Z,18.43
2019-02-14T00:44:08.918Z,18.43
2019-02-14T00:45:08.820Z,18.42
2019-02-14T00:46:09.756Z,18.42
2019-02-14T00:47:08.911Z,18.41
2019-02-14T00:48:08.950Z,18.4
2019-02-14T00:49:08.641Z,18.41
2019-02-14T00:50:08.963Z,18.4
2019-02-14T00:51:08.677Z,18.39
2019-02-14T00:52:09.098Z,18.38
2019-02-14T00:53:08.916Z,18.38
2019-02-14T00:54:10.604Z,18.38
2019-02-14T00:55:08.946Z,18.37
2019-02-14T00:56:08.917Z,18.37
2019-02-14T00:57:09.230Z,18.37
2019-02-14T00:58:08.782Z,18.37
2019-02-14T00:59:09.247Z,18.35
2019-02-14T01:00:09.047Z,18.36
2019-02-14T01:01:09.881Z,18.35
2019-02-14T01:02:08.982Z,18.34
2019-02-14T01:03:08.890Z,18.34
2019-02-14T01:04:08.854Z,18.33
2019-02-14T01:05:09.057Z,18.33
2019-02-14T01:06:08.978Z,18.33
2019-02-14T01:07:08.997Z,18.33
2019-02-14T01:08:10.475Z,18.32
2019-02-14T01:09:09.013Z,18.31
2019-02-14T01:10:09.399Z,18.3
2019-02-14T01:11:09.602Z,18.3
2019-02-14T01:12:09.028Z,18.29
2019-02-14T01:13:09.043Z,18.3
2019-02-14T01:14:08.694Z,18.3
2019-02-14T01:15:08.990Z,18.29
2019-02-14T01:16:09.730Z,18.27
2019-02-14T01:17:08.614Z,18.28
2019-02-14T01:18:08.827Z,18.28
2019-02-14T01:19:09.164Z,18.28
2019-02-14T01:20:09.081Z,18.28
2019-02-14T01:21:09.433Z,18.27
2019-02-14T01:22:10.204Z,18.26
2019-02-14T01:23:09.533Z,18.26
2019-02-14T01:24:10.672Z,18.26
2019-02-14T01:25:08.884Z,18.25
2019-02-14T01:26:10.196Z,18.24
2019-02-14T01:27:08.917Z,18.24
2019-02-14T01:28:08.760Z,18.24
2019-02-14T01:29:08.606Z,18.24
2019-02-14T01:30:08.988Z,18.23
2019-02-14T01:31:08.867Z,18.23
2019-02-14T01:32:08.967Z,18.23
2019-02-14T01:33:09.180Z,18.23
2019-02-14T01:34:09.053Z,18.21
2019-02-14T01:35:08.976Z,18.22
2019-02-14T01:36:10.668Z,18.21
2019-02-14T01:37:09.213Z,18.2
2019-02-14T01:38:08.699Z,18.21
2019-02-14T01:39:09.190Z,18.2
2019-02-14T01:40:08.928Z,18.19
2019-02-14T01:41:08.922Z,18.2
2019-02-14T01:42:10.883Z,18.19
2019-02-14T01:43:08.943Z,18.18
2019-02-14T01:44:09.345Z,18.18
2019-02-14T01:45:09.057Z,18.18
2019-02-14T01:46:10.475Z,18.17
2019-02-14T01:47:08.915Z,18.17
2019-02-14T01:48:09.129Z,18.16
2019-02-14T01:49:08.740Z,18.16
2019-02-14T01:50:08.583Z,18.16
2019-02-14T01:51:08.910Z,18.16
2019-02-14T01:52:08.892Z,18.14
2019-02-14T01:53:08.578Z,18.15
2019-02-14T01:54:10.583Z,18.14
2019-02-14T01:55:08.922Z,18.13
2019-02-14T01:56:08.724Z,18.13
2019-02-14T01:57:09.138Z,18.12
2019-02-14T01:58:08.593Z,18.13
2019-02-14T01:59:08.611Z,18.12
2019-02-14T02:00:09.482Z,18.11
2019-02-14T02:01:08.769Z,18.12
2019-02-14T02:02:10.521Z,18.11
2019-02-14T02:03:09.286Z,18.1
2019-02-14T02:04:08.522Z,18.11
2019-02-14T02:05:09.210Z,18.1
2019-02-14T02:06:09.818Z,18.1
2019-02-14T02:07:08.829Z,18.09
2019-02-14T02:08:09.067Z,18.09
2019-02-14T02:09:08.996Z,18.08
2019-02-14T02:10:08.728Z,18.09
2019-02-14T02:11:08.954Z,18.08
2019-02-14T02:12:08.596Z,18.07
2019-02-14T02:13:08.708Z,18.07
2019-02-14T02:14:08.819Z,18.07
2019-02-14T02:15:08.593Z,18.05
2019-02-14T02:16:08.966Z,18.06
2019-02-14T02:17:08.685Z,18.06
2019-02-14T02:18:08.782Z,18.05
2019-02-14T02:19:08.807Z,18.05
2019-02-14T02:20:08.845Z,18.05
2019-02-14T02:21:08.938Z,18.04
2019-02-14T02:22:08.780Z,18.04
2019-02-14T02:23:09.261Z,18.03
2019-02-14T02:24:08.649Z,18.04
2019-02-14T02:25:09.042Z,18.03
2019-02-14T02:26:09.174Z,18.03
2019-02-14T02:27:09.278Z,18.03
2019-02-14T02:28:08.603Z,18.02
2019-02-14T02:29:08.955Z,18.02
2019-02-14T02:30:08.877Z,18.02
2019-02-14T02:31:08.932Z,18.02
2019-02-14T02:32:08.879Z,18
2019-02-14T02:33:10.548Z,18.01
2019-02-14T02:34:09.144Z,18.01
2019-02-14T02:35:08.929Z,18
2019-02-14T02:36:08.919Z,18
2019-02-14T02:37:09.977Z,17.99
2019-02-14T02:38:09.216Z,17.99
2019-02-14T02:39:09.424Z,17.98
2019-02-14T02:40:08.788Z,17.98
2019-02-14T02:41:08.594Z,17.98
2019-02-14T02:42:08.746Z,17.97
2019-02-14T02:43:08.884Z,17.97
2019-02-14T02:44:09.102Z,17.97
2019-02-14T02:45:09.140Z,17.96
2019-02-14T02:46:08.576Z,17.96
2019-02-14T02:47:09.268Z,17.96
2019-02-14T02:48:08.698Z,17.95
2019-02-14T02:49:10.406Z,17.95
2019-02-14T02:50:08.827Z,17.95
2019-02-14T02:51:09.047Z,17.95
2019-02-14T02:52:09.224Z,17.94
2019-02-14T02:53:09.683Z,17.94
2019-02-14T02:54:09.047Z,17.94
2019-02-14T02:55:08.769Z,17.95
2019-02-14T02:56:08.692Z,17.93
2019-02-14T02:57:09.521Z,17.93
2019-02-14T02:58:09.057Z,17.93
2019-02-14T02:59:08.553Z,17.93
2019-02-14T03:00:08.634Z,17.92
2019-02-14T03:01:08.638Z,17.92
2019-02-14T03:02:09.218Z,17.91
2019-02-14T03:03:08.769Z,17.92
2019-02-14T03:04:09.326Z,17.91
2019-02-14T03:05:10.583Z,17.91
2019-02-14T03:06:10.737Z,17.9
2019-02-14T03:07:08.847Z,17.9
2019-02-14T03:08:09.069Z,17.9
2019-02-14T03:09:08.566Z,17.89
2019-02-14T03:10:09.730Z,17.89
2019-02-14T03:11:09.511Z,17.9
2019-02-14T03:12:09.159Z,17.89
2019-02-14T03:13:08.870Z,17.89
2019-02-14T03:14:09.003Z,17.88
2019-02-14T03:15:08.591Z,17.88
2019-02-14T03:16:09.056Z,17.86
2019-02-14T03:17:08.993Z,17.86
2019-02-14T03:18:08.916Z,17.88
2019-02-14T03:19:09.132Z,17.87
2019-02-14T03:20:10.630Z,17.87
2019-02-14T03:21:08.787Z,17.85
2019-02-14T03:22:09.123Z,17.86
2019-02-14T03:23:09.208Z,17.85
2019-02-14T03:24:09.631Z,17.85
2019-02-14T03:25:08.892Z,17.85
2019-02-14T03:26:09.623Z,17.85
2019-02-14T03:27:09.005Z,17.86
2019-02-14T03:28:08.968Z,17.85
2019-02-14T03:29:08.777Z,17.85
2019-02-14T03:30:08.900Z,17.84
2019-02-14T03:31:10.557Z,17.84
2019-02-14T03:32:09.552Z,17.83
2019-02-14T03:33:09.034Z,17.83
2019-02-14T03:34:08.877Z,17.82
2019-02-14T03:35:09.401Z,17.81
2019-02-14T03:36:09.029Z,17.82
2019-02-14T03:37:09.124Z,17.81
2019-02-14T03:38:08.930Z,17.81
2019-02-14T03:39:09.076Z,17.8
2019-02-14T03:40:09.358Z,17.8
2019-02-14T03:41:08.863Z,17.8
2019-02-14T03:42:08.743Z,17.79
2019-02-14T03:43:10.586Z,17.8
2019-02-14T03:44:08.691Z,17.8
2019-02-14T03:45:09.202Z,17.79
2019-02-14T03:46:09.574Z,17.79
2019-02-14T03:47:08.573Z,17.79
2019-02-14T03:48:09.026Z,17.78
2019-02-14T03:49:08.867Z,17.78
2019-02-14T03:50:08.545Z,17.78
2019-02-14T03:51:08.965Z,17.77
2019-02-14T03:52:09.146Z,17.77
2019-02-14T03:53:09.503Z,17.76
2019-02-14T03:54:10.270Z,17.76
2019-02-14T03:55:08.952Z,17.76
2019-02-14T03:56:10.418Z,17.77
2019-02-14T03:57:08.748Z,17.76
2019-02-14T03:58:08.616Z,17.76
2019-02-14T03:59:08.806Z,17.76
2019-02-14T04:00:08.770Z,17.76
2019-02-14T04:01:09.513Z,17.75
2019-02-14T04:02:08.899Z,17.74
2019-02-14T04:03:09.109Z,17.74
2019-02-14T04:04:09.099Z,17.74
2019-02-14T04:05:08.812Z,17.74
2019-02-14T04:06:09.765Z,17.73
2019-02-14T04:07:09.465Z,17.74
2019-02-14T04:08:08.621Z,17.73
2019-02-14T04:09:09.269Z,17.72
2019-02-14T04:10:08.573Z,17.72
2019-02-14T04:11:08.765Z,17.72
2019-02-14T04:12:08.980Z,17.72
2019-02-14T04:13:09.122Z,17.71
2019-02-14T04:14:09.786Z,17.71
2019-02-14T04:15:09.419Z,17.7
2019-02-14T04:16:09.500Z,17.7
2019-02-14T04:17:08.613Z,17.69
2019-02-14T04:18:08.900Z,17.69
2019-02-14T04:19:08.998Z,17.69
2019-02-14T04:20:09.219Z,17.69
2019-02-14T04:21:08.859Z,17.68
2019-02-14T04:22:08.740Z,17.69
2019-02-14T04:23:08.972Z,17.68
2019-02-14T04:24:09.376Z,17.68
2019-02-14T04:25:08.413Z,17.68
2019-02-14T04:26:08.791Z,17.68
2019-02-14T04:27:10.562Z,17.67
2019-02-14T04:28:09.133Z,17.67
2019-02-14T04:29:08.758Z,17.66
2019-02-14T04:30:09.130Z,17.66
2019-02-14T04:31:08.691Z,17.66
2019-02-14T04:32:09.003Z,17.66
2019-02-14T04:33:09.028Z,17.66
2019-02-14T04:34:08.934Z,17.65
2019-02-14T04:35:09.056Z,17.65
2019-02-14T04:36:08.855Z,17.66
2019-02-14T04:37:09.281Z,17.65
2019-02-14T04:38:09.263Z,17.66
2019-02-14T04:39:08.975Z,17.64
2019-02-14T04:40:08.876Z,17.65
2019-02-14T04:41:08.649Z,17.65
2019-02-14T04:42:09.174Z,17.65
2019-02-14T04:43:08.609Z,17.65
2019-02-14T04:44:08.522Z,17.65
2019-02-14T04:45:08.355Z,17.65
2019-02-14T04:46:09.003Z,17.66
2019-02-14T04:47:09.609Z,17.66
2019-02-14T04:48:08.930Z,17.66
2019-02-14T04:49:09.044Z,17.66
2019-02-14T04:50:08.984Z,17.67
2019-02-14T04:51:08.842Z,17.67
2019-02-14T04:52:10.522Z,17.68
2019-02-14T04:53:09.035Z,17.69
2019-02-14T04:54:08.885Z,17.69
2019-02-14T04:55:08.799Z,17.71
2019-02-14T04:56:08.664Z,17.72
2019-02-14T04:57:08.669Z,17.72
2019-02-14T04:58:09.412Z,17.74
2019-02-14T04:59:10.565Z,17.74
2019-02-14T05:00:08.781Z,17.75
2019-02-14T05:01:09.218Z,17.76
2019-02-14T05:02:08.858Z,17.78
2019-02-14T05:03:08.751Z,17.79
2019-02-14T05:04:10.569Z,17.79
2019-02-14T05:05:09.277Z,17.81
2019-02-14T05:06:08.949Z,17.82
2019-02-14T05:07:09.218Z,17.84
2019-02-14T05:08:08.687Z,17.85
2019-02-14T05:09:08.982Z,17.87
2019-02-14T05:10:09.123Z,17.88
2019-02-14T05:11:08.893Z,17.89
2019-02-14T05:12:08.590Z,17.91
2019-02-14T05:13:09.031Z,17.94
2019-02-14T05:14:08.440Z,17.94
2019-02-14T05:15:09.841Z,17.96
2019-02-14T05:16:08.622Z,17.96
2019-02-14T05:17:08.856Z,17.99
2019-02-14T05:18:09.047Z,18.01
2019-02-14T05:19:10.608Z,18.03
2019-02-14T05:20:10.097Z,18.05
2019-02-14T05:21:09.373Z,18.05
2019-02-14T05:22:09.624Z,18.07
2019-02-14T05:23:08.620Z,18.1
2019-02-14T05:24:09.111Z,18.11
2019-02-14T05:25:08.805Z,18.13
2019-02-14T05:26:08.903Z,18.14
2019-02-14T05:27:08.503Z,18.17
2019-02-14T05:28:08.916Z,18.17
2019-02-14T05:29:08.797Z,18.21
2019-02-14T05:30:08.626Z,18.21
2019-02-14T05:31:08.818Z,18.22
2019-02-14T05:32:08.742Z,18.24
2019-02-14T05:33:08.617Z,18.26
2019-02-14T05:34:08.839Z,18.26
2019-02-14T05:35:08.796Z,18.28
2019-02-14T05:36:08.975Z,18.3
2019-02-14T05:37:08.857Z,18.31
2019-02-14T05:38:09.058Z,18.33
2019-02-14T05:39:09.135Z,18.33
2019-02-14T05:40:09.032Z,18.34
2019-02-14T05:41:09.039Z,18.36
2019-02-14T05:42:09.549Z,18.37
2019-02-14T05:43:09.831Z,18.39
2019-02-14T05:44:08.668Z,18.39
2019-02-14T05:45:08.650Z,18.41
2019-02-14T05:46:09.003Z,18.42
2019-02-14T05:47:08.963Z,18.44
2019-02-14T05:48:08.579Z,18.44
2019-02-14T05:49:08.735Z,18.45
2019-02-14T05:50:08.654Z,18.47
2019-02-14T05:51:09.179Z,18.47
2019-02-14T05:52:09.392Z,18.49
2019-02-14T05:53:08.694Z,18.49
2019-02-14T05:54:09.163Z,18.5
2019-02-14T05:55:08.591Z,18.52
2019-02-14T05:56:08.813Z,18.52
2019-02-14T05:57:08.935Z,18.53
2019-02-14T05:58:08.815Z,18.54
2019-02-14T05:59:09.032Z,18.55
2019-02-14T06:00:09.080Z,18.56
2019-02-14T06:01:08.595Z,18.56
2019-02-14T06:02:08.810Z,18.58
2019-02-14T06:03:08.945Z,18.58
2019-02-14T06:04:09.392Z,18.59
2019-02-14T06:05:09.492Z,18.6
2019-02-14T06:06:08.876Z,18.6
2019-02-14T06:07:10.378Z,18.6
2019-02-14T06:08:09.995Z,18.61
2019-02-14T06:09:08.823Z,18.62
2019-02-14T06:10:08.920Z,18.62
2019-02-14T06:11:08.929Z,18.63
2019-02-14T06:12:08.822Z,18.64
2019-02-14T06:13:09.237Z,18.64
2019-02-14T06:14:10.003Z,18.64
2019-02-14T06:15:08.453Z,18.65
2019-02-14T06:16:08.849Z,18.66
2019-02-14T06:17:08.947Z,18.65
2019-02-14T06:18:08.855Z,18.65
2019-02-14T06:19:08.775Z,18.66
2019-02-14T06:20:09.095Z,18.67
2019-02-14T06:21:08.892Z,18.67
2019-02-14T06:22:08.607Z,18.66
2019-02-14T06:23:08.631Z,18.68
2019-02-14T06:24:08.959Z,18.68
2019-02-14T06:25:09.092Z,18.68
2019-02-14T06:26:09.652Z,18.68
2019-02-14T06:27:09.292Z,18.67
2019-02-14T06:28:08.856Z,18.67
2019-02-14T06:29:08.714Z,18.68
2019-02-14T06:30:08.657Z,18.69
2019-02-14T06:31:08.896Z,18.68
2019-02-14T06:32:09.569Z,18.69
2019-02-14T06:33:08.881Z,18.68
2019-02-14T06:34:08.777Z,18.68
2019-02-14T06:35:08.879Z,18.69
2019-02-14T06:36:09.696Z,18.7
2019-02-14T06:37:09.778Z,18.69
2019-02-14T06:38:08.611Z,18.69
2019-02-14T06:39:09.315Z,18.68
2019-02-14T06:40:08.557Z,18.69
2019-02-14T06:41:09.008Z,18.69
2019-02-14T06:42:08.413Z,18.7
2019-02-14T06:43:08.850Z,18.7
2019-02-14T06:44:08.795Z,18.69
2019-02-14T06:45:08.461Z,18.7
2019-02-14T06:46:09.386Z,18.69
2019-02-14T06:47:08.901Z,18.7
2019-02-14T06:48:08.572Z,18.7
2019-02-14T06:49:10.381Z,18.71
2019-02-14T06:50:09.364Z,18.7
2019-02-14T06:51:08.533Z,18.7
2019-02-14T06:52:09.702Z,18.71
2019-02-14T06:53:08.610Z,18.71
2019-02-14T06:54:08.359Z,18.71
2019-02-14T06:55:08.568Z,18.7
2019-02-14T06:56:08.808Z,18.71
2019-02-14T06:57:08.652Z,18.71
2019-02-14T06:58:08.894Z,18.7
2019-02-14T06:59:08.639Z,18.72
2019-02-14T07:00:08.650Z,18.71
2019-02-14T07:01:08.720Z,18.7
2019-02-14T07:02:08.653Z,18.7
2019-02-14T07:03:08.426Z,18.7
2019-02-14T07:04:09.146Z,18.69
2019-02-14T07:05:10.526Z,18.69
2019-02-14T07:06:08.721Z,18.69
2019-02-14T07:07:08.805Z,18.7
2019-02-14T07:08:09.739Z,18.7
2019-02-14T07:09:08.597Z,18.68
2019-02-14T07:10:09.332Z,18.69
2019-02-14T07:11:09.644Z,18.68
2019-02-14T07:12:08.994Z,18.67
2019-02-14T07:13:09.481Z,18.68
2019-02-14T07:14:08.756Z,18.68
2019-02-14T07:15:09.003Z,18.68
2019-02-14T07:16:10.479Z,18.67
2019-02-14T07:17:08.780Z,18.68
2019-02-14T07:18:10.465Z,18.67
2019-02-14T07:19:08.576Z,18.66
2019-02-14T07:20:09.324Z,18.66
2019-02-14T07:21:08.830Z,18.66
2019-02-14T07:22:08.683Z,18.67
2019-02-14T07:23:08.715Z,18.66
2019-02-14T07:24:09.309Z,18.65
2019-02-14T07:25:08.549Z,18.65
2019-02-14T07:26:08.634Z,18.66
2019-02-14T07:27:09.163Z,18.65
2019-02-14T07:28:08.643Z,18.65
2019-02-14T07:29:08.677Z,18.65
2019-02-14T07:30:08.787Z,18.66
2019-02-14T07:31:08.928Z,18.65
2019-02-14T07:32:10.453Z,18.65
2019-02-14T07:33:09.618Z,18.65
2019-02-14T07:34:09.468Z,18.65
2019-02-14T07:35:10.403Z,18.64
2019-02-14T07:36:10.559Z,18.65
2019-02-14T07:37:09.241Z,18.66
2019-02-14T07:38:10.470Z,18.64
2019-02-14T07:39:08.915Z,18.65
2019-02-14T07:40:09.486Z,18.64
2019-02-14T07:41:08.508Z,18.64
2019-02-14T07:42:08.663Z,18.64
2019-02-14T07:43:08.577Z,18.64
2019-02-14T07:44:08.661Z,18.65
2019-02-14T07:45:09.332Z,18.64
2019-02-14T07:46:09.288Z,18.65
2019-02-14T07:47:09.005Z,18.66
2019-02-14T07:48:08.639Z,18.65
2019-02-14T07:49:08.708Z,18.65
2019-02-14T07:50:08.727Z,18.65
2019-02-14T07:51:08.579Z,18.65
2019-02-14T07:52:08.780Z,18.65
2019-02-14T07:53:10.341Z,18.65
2019-02-14T07:54:08.816Z,18.65
2019-02-14T07:55:10.503Z,18.65
2019-02-14T07:56:09.472Z,18.66
2019-02-14T07:57:08.695Z,18.66
2019-02-14T07:58:08.727Z,18.66
2019-02-14T07:59:08.504Z,18.67
2019-02-14T08:00:08.845Z,18.67
2019-02-14T08:01:08.922Z,18.67
2019-02-14T08:02:09.070Z,18.67
2019-02-14T08:03:08.716Z,18.68
2019-02-14T08:04:08.727Z,18.68
2019-02-14T08:05:09.970Z,18.68
2019-02-14T08:06:08.635Z,18.67
2019-02-14T08:07:08.943Z,18.68
2019-02-14T08:08:08.561Z,18.68
2019-02-14T08:09:08.656Z,18.69
2019-02-14T08:10:08.952Z,18.69
2019-02-14T08:11:09.159Z,18.69
2019-02-14T08:12:08.817Z,18.69
2019-02-14T08:13:08.385Z,18.7
2019-02-14T08:14:08.680Z,18.7
2019-02-14T08:15:08.614Z,18.7
2019-02-14T08:16:10.104Z,18.71
2019-02-14T08:17:08.537Z,18.72
2019-02-14T08:18:09.068Z,18.71
2019-02-14T08:19:09.035Z,18.72
2019-02-14T08:20:08.594Z,18.72
2019-02-14T08:21:08.825Z,18.72
2019-02-14T08:22:10.380Z,18.72
2019-02-14T08:23:08.586Z,18.72
2019-02-14T08:24:08.736Z,18.71
2019-02-14T08:25:08.549Z,18.74
2019-02-14T08:26:10.957Z,18.74
2019-02-14T08:27:08.682Z,18.78
2019-02-14T08:28:09.495Z,18.79
2019-02-14T08:29:09.586Z,18.78
2019-02-14T08:30:08.674Z,18.78
2019-02-14T08:31:08.802Z,18.79
2019-02-14T08:32:08.822Z,18.8
2019-02-14T08:33:08.633Z,18.81
2019-02-14T08:34:08.781Z,18.81
2019-02-14T08:35:08.703Z,18.81
2019-02-14T08:36:08.772Z,18.8
2019-02-14T08:37:08.955Z,18.8
2019-02-14T08:38:08.603Z,18.81
2019-02-14T08:39:09.243Z,18.82
2019-02-14T08:40:08.816Z,18.81
2019-02-14T08:41:08.551Z,18.81
2019-02-14T08:42:09.583Z,18.82
2019-02-14T08:43:09.041Z,18.83
2019-02-14T08:44:08.723Z,18.82
2019-02-14T08:45:08.505Z,18.82
2019-02-14T08:46:09.020Z,18.83
2019-02-14T08:47:10.302Z,18.82
2019-02-14T08:48:09.240Z,18.83
2019-02-14T08:49:08.732Z,18.83
2019-02-14T08:50:08.673Z,18.82
2019-02-14T08:51:08.935Z,18.82
2019-02-14T08:52:08.765Z,18.82
2019-02-14T08:53:09.068Z,18.83
2019-02-14T08:54:08.665Z,18.83
2019-02-14T08:55:10.005Z,18.83
2019-02-14T08:56:08.869Z,18.83
2019-02-14T08:57:08.647Z,18.84
2019-02-14T08:58:08.743Z,18.83
2019-02-14T08:59:08.847Z,18.83
2019-02-14T09:00:10.502Z,18.84
2019-02-14T09:01:08.726Z,18.82
2019-02-14T09:02:09.201Z,18.82
2019-02-14T09:03:08.663Z,18.82
2019-02-14T09:04:09.010Z,18.81
2019-02-14T09:05:08.446Z,18.81
2019-02-14T09:06:08.478Z,18.81
2019-02-14T09:07:08.309Z,18.8
2019-02-14T09:08:08.472Z,18.81
2019-02-14T09:09:08.331Z,18.82
2019-02-14T09:10:08.601Z,18.82
2019-02-14T09:11:08.878Z,18.81
2019-02-14T09:12:08.681Z,18.81
2019-02-14T09:13:16.688Z,18.82
2019-02-14T09:14:09.145Z,18.82
2019-02-14T09:15:08.808Z,18.83
2019-02-14T09:16:08.644Z,18.83
2019-02-14T09:17:08.673Z,18.82
2019-02-14T09:18:09.107Z,18.82
2019-02-14T09:19:08.627Z,18.81
2019-02-14T09:20:09.051Z,18.82
2019-02-14T09:21:09.354Z,18.82
2019-02-14T09:22:09.948Z,18.84
2019-02-14T09:23:08.805Z,18.85
2019-02-14T09:24:08.353Z,18.86
2019-02-14T09:25:08.692Z,18.87
2019-02-14T09:26:09.163Z,18.87
2019-02-14T09:27:08.543Z,18.9
2019-02-14T09:28:08.592Z,18.91
2019-02-14T09:29:08.694Z,18.92
2019-02-14T09:30:08.836Z,18.92
2019-02-14T09:31:08.896Z,18.93
2019-02-14T09:32:08.712Z,18.94
2019-02-14T09:33:10.244Z,18.96
2019-02-14T09:34:10.369Z,18.97
2019-02-14T09:35:08.589Z,18.98
2019-02-14T09:36:08.990Z,19
2019-02-14T09:37:08.552Z,19.01
2019-02-14T09:38:08.794Z,19.03
2019-02-14T09:39:08.678Z,19.03
2019-02-14T09:40:09.045Z,19.04
2019-02-14T09:41:08.644Z,19.06
2019-02-14T09:42:08.468Z,19.07
2019-02-14T09:43:09.589Z,19.07
2019-02-14T09:44:09.470Z,19.1
2019-02-14T09:45:08.739Z,19.1
2019-02-14T09:46:08.801Z,19.11
2019-02-14T09:47:08.875Z,19.11
2019-02-14T09:48:08.847Z,19.14
2019-02-14T09:49:08.648Z,19.14
2019-02-14T09:50:08.540Z,19.15
2019-02-14T09:51:08.603Z,19.15
2019-02-14T09:52:08.420Z,19.16
2019-02-14T09:53:08.764Z,19.16
2019-02-14T09:54:10.358Z,19.17
2019-02-14T09:55:08.599Z,19.18
2019-02-14T09:56:09.084Z,19.18
2019-02-14T09:57:09.426Z,19.19
2019-02-14T09:58:09.794Z,19.19
2019-02-14T09:59:09.181Z,19.2
2019-02-14T10:00:08.635Z,19.2
2019-02-14T10:01:08.855Z,19.2
2019-02-14T10:02:09.843Z,19.21
2019-02-14T10:03:08.565Z,19.22
2019-02-14T10:04:08.563Z,19.22
2019-02-14T10:05:08.996Z,19.22
2019-02-14T10:06:09.688Z,19.22
2019-02-14T10:07:08.585Z,19.23
2019-02-14T10:08:12.621Z,19.25
2019-02-14T10:09:09.052Z,19.25
2019-02-14T10:10:09.014Z,19.24
2019-02-14T10:11:10.442Z,19.24
2019-02-14T10:12:08.790Z,19.25
2019-02-14T10:13:09.607Z,19.25
2019-02-14T10:14:08.824Z,19.24
2019-02-14T10:15:08.687Z,19.24
2019-02-14T10:16:08.773Z,19.25
2019-02-14T10:17:08.750Z,19.24
2019-02-14T10:18:10.352Z,19.24
2019-02-14T10:19:08.747Z,19.24
2019-02-14T10:20:08.585Z,19.25
2019-02-14T10:21:08.689Z,19.25
2019-02-14T10:22:08.754Z,19.25
2019-02-14T10:23:08.791Z,19.25
2019-02-14T10:24:08.399Z,19.25
2019-02-14T10:25:08.534Z,19.25
2019-02-14T10:26:08.301Z,19.25
2019-02-14T10:27:09.657Z,19.24
2019-02-14T10:28:08.761Z,19.25
2019-02-14T10:29:08.622Z,19.25
2019-02-14T10:30:08.763Z,19.25
2019-02-14T10:31:08.638Z,19.25
2019-02-14T10:32:08.733Z,19.25
2019-02-14T10:33:08.946Z,19.25
2019-02-14T10:34:10.022Z,19.25
2019-02-14T10:35:08.813Z,19.25
2019-02-14T10:36:08.892Z,19.24
2019-02-14T10:37:08.286Z,19.25
2019-02-14T10:38:08.689Z,19.26
2019-02-14T10:39:08.798Z,19.24
2019-02-14T10:40:08.284Z,19.25
2019-02-14T10:41:08.612Z,19.24
2019-02-14T10:42:09.768Z,19.24
2019-02-14T10:43:08.585Z,19.24
2019-02-14T10:44:08.638Z,19.24
2019-02-14T10:45:09.271Z,19.23
2019-02-14T10:46:08.627Z,19.23
2019-02-14T10:47:08.698Z,19.24
2019-02-14T10:48:10.628Z,19.25
2019-02-14T10:49:08.224Z,19.24
2019-02-14T10:50:08.589Z,19.24
2019-02-14T10:51:08.675Z,19.25
2019-02-14T10:52:09.005Z,19.25
2019-02-14T10:53:08.918Z,19.26
2019-02-14T10:54:08.569Z,19.26
2019-02-14T10:55:08.896Z,19.26
2019-02-14T10:56:08.549Z,19.25
2019-02-14T10:57:08.505Z,19.24
2019-02-14T10:58:08.658Z,19.26
2019-02-14T10:59:08.715Z,19.26
2019-02-14T11:00:08.557Z,19.27
2019-02-14T11:01:08.650Z,19.28
2019-02-14T11:02:10.458Z,19.29
2019-02-14T11:03:08.789Z,19.3
2019-02-14T11:04:08.667Z,19.3
2019-02-14T11:05:08.838Z,19.32
2019-02-14T11:06:08.862Z,19.32
2019-02-14T11:07:08.587Z,19.34
2019-02-14T11:08:08.778Z,19.36
2019-02-14T11:09:08.615Z,19.36
2019-02-14T11:10:09.220Z,19.36
2019-02-14T11:11:09.216Z,19.37
2019-02-14T11:12:08.919Z,19.39
2019-02-14T11:13:08.623Z,19.39
2019-02-14T11:14:09.355Z,19.4
2019-02-14T11:15:09.195Z,19.41
2019-02-14T11:16:09.744Z,19.41
2019-02-14T11:17:08.817Z,19.44
2019-02-14T11:18:08.855Z,19.41
2019-02-14T11:19:08.625Z,19.38
2019-02-14T11:20:09.260Z,19.36
2019-02-14T11:21:09.642Z,19.35
2019-02-14T11:22:08.356Z,19.32
2019-02-14T11:23:09.247Z,19.33
2019-02-14T11:24:08.981Z,19.31
2019-02-14T11:25:08.778Z,19.31
2019-02-14T11:26:08.808Z,19.34
2019-02-14T11:27:08.649Z,19.35
2019-02-14T11:28:10.505Z,19.36
2019-02-14T11:29:09.065Z,19.38
2019-02-14T11:30:08.510Z,19.39
2019-02-14T11:31:09.522Z,19.4
2019-02-14T11:32:09.554Z,19.41
2019-02-14T11:33:09.030Z,19.43
2019-02-14T11:34:09.154Z,19.45
2019-02-14T11:35:08.886Z,19.44
2019-02-14T11:36:08.579Z,19.46
2019-02-14T11:37:09.016Z,19.46
2019-02-14T11:38:08.696Z,19.46
2019-02-14T11:39:08.673Z,19.48
2019-02-14T11:40:08.853Z,19.47
2019-02-14T11:41:10.214Z,19.47
2019-02-14T11:42:08.913Z,19.48
2019-02-14T11:43:09.120Z,19.47
2019-02-14T11:44:08.813Z,19.47
2019-02-14T11:45:08.647Z,19.48
2019-02-14T11:46:09.062Z,19.48
2019-02-14T11:47:08.890Z,19.48
2019-02-14T11:48:08.565Z,19.48
2019-02-14T11:49:09.587Z,19.48
2019-02-14T11:50:10.198Z,19.48
2019-02-14T11:51:08.606Z,19.48
2019-02-14T11:52:09.004Z,19.48
2019-02-14T11:53:14.064Z,19.48
2019-02-14T11:54:08.317Z,19.47
2019-02-14T11:55:08.977Z,19.49
2019-02-14T11:56:10.106Z,19.49
2019-02-14T11:57:08.651Z,19.49
2019-02-14T11:58:08.921Z,19.5
2019-02-14T11:59:09.184Z,19.49
2019-02-14T12:00:08.377Z,19.49
2019-02-14T12:01:09.700Z,19.48
2019-02-14T12:02:08.568Z,19.49
2019-02-14T12:03:09.141Z,19.49
2019-02-14T12:04:08.750Z,19.48
2019-02-14T12:05:08.814Z,19.48
2019-02-14T12:06:08.655Z,19.48
2019-02-14T12:07:08.597Z,19.48
2019-02-14T12:08:09.594Z,19.48
2019-02-14T12:09:08.526Z,19.48
2019-02-14T12:10:13.331Z,19.48
2019-02-14T12:11:09.123Z,19.48
2019-02-14T12:12:08.667Z,19.47
2019-02-14T12:13:09.066Z,19.52
2019-02-14T12:14:08.973Z,19.51
2019-02-14T12:15:08.255Z,19.53
2019-02-14T12:16:09.919Z,19.53
2019-02-14T12:17:09.727Z,19.54
2019-02-14T12:18:08.599Z,19.56
2019-02-14T12:19:08.682Z,19.56
2019-02-14T12:20:12.334Z,19.56
2019-02-14T12:21:08.577Z,19.57
2019-02-14T12:22:08.608Z,19.58
2019-02-14T12:23:09.609Z,19.59
2019-02-14T12:24:08.310Z,19.6
2019-02-14T12:25:08.643Z,19.6
2019-02-14T12:26:08.944Z,19.62
2019-02-14T12:27:08.938Z,19.63
2019-02-14T12:28:08.393Z,19.62
2019-02-14T12:29:09.623Z,19.62
2019-02-14T12:30:08.778Z,19.63
2019-02-14T12:31:08.639Z,19.63
2019-02-14T12:32:09.616Z,19.65
2019-02-14T12:33:08.888Z,19.65
2019-02-14T12:34:10.253Z,19.67
2019-02-14T12:35:08.891Z,19.67
2019-02-14T12:36:08.718Z,19.67
2019-02-14T12:37:09.587Z,19.68
2019-02-14T12:38:08.552Z,19.69
2019-02-14T12:39:11.510Z,19.69
2019-02-14T12:40:10.224Z,19.7
2019-02-14T12:41:10.470Z,19.71
2019-02-14T12:42:08.570Z,19.71
2019-02-14T12:43:08.697Z,19.73
2019-02-14T12:44:08.939Z,19.78
2019-02-14T12:45:09.326Z,19.76
2019-02-14T12:46:08.821Z,19.73
2019-02-14T12:47:08.809Z,19.73
2019-02-14T12:48:08.569Z,19.73
2019-02-14T12:49:08.699Z,19.72
2019-02-14T12:50:10.330Z,19.72
2019-02-14T12:51:08.599Z,19.72
2019-02-14T12:52:08.945Z,19.72
2019-02-14T12:53:08.976Z,19.71
2019-02-14T12:54:08.326Z,19.71
2019-02-14T12:55:08.874Z,19.71